Terminal Aerodrome Forecast
Issued by NWS

Home | Current Version | Previous Version | Text Only | Print | Product List | Glossary On
Versions: 1 2 3 4 5 6 7 8 9 10 11 12 13 14 15 16 17 18
296
FTUS46 KSGX 231852 AAA
TAFSNA
TAF AMD
KSNA 231852Z 2319/2418 22011KT P6SM FEW015 SCT200
      TEMPO 2319/2323 BKN012
     FM240300 20005KT P6SM SCT010
     FM240500 VRB04KT P6SM OVC010
     FM241630 VRB04KT P6SM SCT010=

USA.gov is the U.S. government's official web portal to all federal, state and local government web resources and services.